Time;durP1;ratioP1;P1;durP2;ratioP2;P2;SDS_P1;SDS_P2;PMS_P1;PMS_P2;Temp;Humidity;BMP_temperature;BMP_pressure;BME280_temperature;BME280_humidity;BME280_pressure;Samples;Min_cycle;Max_cycle;Signal;HPM_P1;HPM_P2
2022/02/25 00:00:23;;;;;;;0.60;0.60;;;;;;;2.79;72.59;97164.56;29373;213;63009;-62
2022/02/25 00:00:55;;;;;;;0.60;0.60;;;;;;;2.78;72.99;97162.94;29373;304;63005;-61
2022/02/25 00:01:26;;;;;;;0.60;0.60;;;;;;;2.75;72.85;97162.62;29373;316;63009;-66
2022/02/25 00:01:57;;;;;;;0.60;0.60;;;;;;;2.82;72.35;97174.00;29371;244;64005;-59
2022/02/25 00:02:28;;;;;;;0.60;0.60;;;;;;;2.81;72.06;97172.38;29373;309;63009;-64
2022/02/25 00:03:00;;;;;;;0.60;0.60;;;;;;;2.75;72.76;97162.62;29373;253;63004;-62
2022/02/25 00:03:32;;;;;;;0.60;0.60;;;;;;;2.68;72.91;97160.88;29373;225;63009;-65
2022/02/25 00:04:06;;;;;;;0.62;0.62;;;;;;;2.72;72.30;97147.00;29373;217;63004;-64
2022/02/25 00:04:38;;;;;;;0.60;0.60;;;;;;;2.77;71.46;97149.78;29373;291;63009;-59
2022/02/25 00:05:10;;;;;;;0.60;0.60;;;;;;;2.82;71.21;97144.50;29371;282;64004;-64
2022/02/25 00:05:42;;;;;;;0.60;0.60;;;;;;;2.77;71.48;97149.78;29373;245;63008;-62
2022/02/25 00:06:16;;;;;;;0.60;0.60;;;;;;;2.79;71.79;97153.03;29373;297;63008;-67
2022/02/25 00:06:49;;;;;;;0.60;0.60;;;;;;;2.81;71.72;97150.91;29373;222;63008;-62
2022/02/25 00:07:20;;;;;;;0.60;0.60;;;;;;;2.86;71.16;97169.78;29371;250;64005;-59
2022/02/25 00:07:52;;;;;;;0.60;0.60;;;;;;;2.94;70.42;97156.03;29373;221;63009;-64
2022/02/25 00:08:26;;;;;;;0.60;0.60;;;;;;;2.92;69.93;97158.13;29373;215;63005;-66
2022/02/25 00:08:57;;;;;;;0.60;0.60;;;;;;;2.89;70.63;97161.28;29373;243;63009;-61
2022/02/25 00:09:28;;;;;;;0.60;0.60;;;;;;;2.81;71.90;97167.00;29373;200;63005;-62
2022/02/25 00:09:59;;;;;;;0.60;0.60;;;;;;;2.73;72.08;97162.03;29373;197;63009;-66
2022/02/25 00:10:31;;;;;;;0.60;0.60;;;;;;;2.72;72.14;97157.72;29373;204;63004;-56
2022/02/25 00:11:02;;;;;;;0.60;0.60;;;;;;;2.71;72.02;97174.84;29373;319;63009;-56
2022/02/25 00:11:34;;;;;;;0.60;0.60;;;;;;;2.72;71.98;97169.25;29371;215;64004;-62
2022/02/25 00:12:06;;;;;;;0.60;0.60;;;;;;;2.69;72.10;97175.91;29373;239;63009;-61
2022/02/25 00:12:39;;;;;;;0.60;0.60;;;;;;;2.63;72.36;97176.84;29373;218;63004;-63
2022/02/25 00:13:12;;;;;;;0.60;0.60;;;;;;;2.63;72.60;97176.84;29373;202;63008;-68
2022/02/25 00:13:44;;;;;;;0.60;0.60;;;;;;;2.59;72.41;97181.03;29373;326;63004;-63
2022/02/25 00:14:15;;;;;;;0.60;0.60;;;;;;;2.53;72.83;97171.25;29373;222;63015;-63
2022/02/25 00:14:48;;;;;;;0.60;0.60;;;;;;;2.49;73.14;97170.09;29373;269;63005;-64
2022/02/25 00:15:20;;;;;;;0.60;0.60;;;;;;;2.49;73.38;97177.31;29373;275;63009;-64
2022/02/25 00:15:56;;;;;;;0.60;0.60;;;;;;;2.49;72.90;97169.28;29371;266;64005;-60
2022/02/25 00:16:27;;;;;;;0.60;0.60;;;;;;;2.46;73.32;97165.19;29373;260;63009;-60
2022/02/25 00:16:58;;;;;;;0.60;0.60;;;;;;;2.42;73.37;97169.41;29373;294;63005;-65
2022/02/25 00:17:29;;;;;;;0.60;0.60;;;;;;;2.41;73.83;97173.16;29373;269;63009;-61
2022/02/25 00:18:01;;;;;;;0.60;0.60;;;;;;;2.37;74.23;97171.97;29373;280;63004;-60
2022/02/25 00:18:32;;;;;;;0.60;0.60;;;;;;;2.34;74.23;97172.44;29373;257;63009;-64
2022/02/25 00:19:04;;;;;;;0.60;0.60;;;;;;;2.31;74.78;97167.56;29371;280;64004;-63
2022/02/25 00:19:35;;;;;;;0.60;0.60;;;;;;;2.25;75.69;97168.47;29373;228;63009;-63
2022/02/25 00:20:09;;;;;;;0.60;0.60;;;;;;;2.23;75.69;97171.38;29373;232;63004;-62
2022/02/25 00:20:44;;;;;;;0.60;0.60;;;;;;;2.23;75.48;97170.56;29372;262;63008;-63
2022/02/25 00:21:15;;;;;;;0.60;0.60;;;;;;;2.23;75.63;97182.09;29373;233;63004;-66
2022/02/25 00:21:51;;;;;;;0.60;0.60;;;;;;;2.26;75.28;97175.47;29373;202;63009;-67
2022/02/25 00:22:22;;;;;;;0.60;0.60;;;;;;;2.28;75.27;97171.50;29371;233;64017;-61
2022/02/25 00:22:54;;;;;;;0.60;0.60;;;;;;;2.27;74.96;97177.09;29373;293;63009;-64
2022/02/25 00:23:25;;;;;;;0.60;0.60;;;;;;;2.30;74.70;97174.78;29373;227;63008;-67
2022/02/25 00:23:56;;;;;;;0.60;0.60;;;;;;;2.39;73.93;97175.25;29371;247;64009;-63
2022/02/25 00:24:27;;;;;;;0.60;0.60;;;;;;;2.49;72.31;97172.75;29373;216;63005;-63
2022/02/25 00:24:59;;;;;;;0.60;0.60;;;;;;;2.49;72.31;97174.63;29373;287;63009;-63
2022/02/25 00:25:31;;;;;;;0.60;0.60;;;;;;;2.47;72.98;97188.25;29373;324;63005;-58
2022/02/25 00:26:02;;;;;;;0.60;0.60;;;;;;;2.51;72.06;97177.88;29373;204;63009;-60
2022/02/25 00:26:34;;;;;;;0.60;0.60;;;;;;;2.48;72.64;97178.34;29373;198;63004;-64
2022/02/25 00:27:05;;;;;;;0.60;0.60;;;;;;;2.44;73.03;97178.00;29371;245;64009;-62
2022/02/25 00:27:42;;;;;;;0.60;0.60;;;;;;;2.40;73.22;97182.22;29373;258;63004;-64
2022/02/25 00:28:13;;;;;;;0.60;0.60;;;;;;;2.42;73.72;97180.13;29373;202;63008;-60
2022/02/25 00:28:45;;;;;;;0.60;0.60;;;;;;;2.50;72.89;97187.78;29373;251;63004;-66
2022/02/25 00:29:16;;;;;;;0.80;0.80;;;;;;;2.55;72.65;97179.88;29373;230;63009;-63
2022/02/25 00:29:48;;;;;;;0.60;0.60;;;;;;;2.57;72.49;97183.13;29373;214;63005;-63
2022/02/25 00:30:24;;;;;;;0.60;0.60;;;;;;;2.60;72.57;97193.38;29373;203;63009;-65
2022/02/25 00:30:56;;;;;;;0.60;0.60;;;;;;;2.66;72.05;97191.62;29373;199;63005;-63
2022/02/25 00:31:28;;;;;;;0.60;0.60;;;;;;;2.64;71.84;97194.53;29373;206;63009;-66
2022/02/25 00:31:59;;;;;;;0.60;0.60;;;;;;;2.60;72.28;97188.03;29373;203;63005;-65
2022/02/25 00:32:31;;;;;;;0.60;0.60;;;;;;;2.56;72.24;97200.25;29371;202;64009;-65
2022/02/25 00:33:05;;;;;;;0.60;0.60;;;;;;;2.53;72.60;97205.25;29373;206;63005;-62
2022/02/25 00:33:37;;;;;;;0.50;0.50;;;;;;;2.50;72.50;97209.22;29373;228;63009;-62
2022/02/25 00:34:09;;;;;;;0.60;0.60;;;;;;;2.45;72.91;97217.13;29373;219;63004;-60
2022/02/25 00:34:40;;;;;;;0.60;0.60;;;;;;;2.44;73.53;97210.13;29373;202;63009;-64
2022/02/25 00:35:14;;;;;;;0.60;0.60;;;;;;;2.42;73.16;97212.28;29373;196;63004;-63
2022/02/25 00:35:45;;;;;;;0.60;0.60;;;;;;;2.38;72.98;97208.41;29373;204;63015;-61
2022/02/25 00:36:17;;;;;;;0.60;0.60;;;;;;;2.35;73.61;97206.22;29373;221;63004;-60
2022/02/25 00:36:51;;;;;;;0.60;0.60;;;;;;;2.32;73.92;97212.03;29371;221;64009;-62
2022/02/25 00:37:22;;;;;;;0.60;0.60;;;;;;;2.32;74.03;97220.06;29373;202;63005;-63
2022/02/25 00:37:53;;;;;;;0.60;0.60;;;;;;;2.32;74.33;97217.38;29373;245;63009;-64
2022/02/25 00:38:24;;;;;;;0.60;0.60;;;;;;;2.38;73.73;97213.78;29371;231;64005;-56
2022/02/25 00:38:55;;;;;;;0.60;0.60;;;;;;;2.43;72.75;97211.19;29373;197;63009;-63
2022/02/25 00:39:27;;;;;;;0.60;0.60;;;;;;;2.41;73.72;97215.19;29373;320;63005;-60
2022/02/25 00:39:58;;;;;;;0.60;0.60;;;;;;;2.36;73.83;97218.56;29373;255;63009;-64
2022/02/25 00:40:32;;;;;;;0.60;0.60;;;;;;;2.35;74.32;97216.91;29373;207;63005;-60
2022/02/25 00:41:03;;;;;;;0.60;0.60;;;;;;;2.33;74.42;97219.00;29371;220;64009;-62
2022/02/25 00:41:35;;;;;;;0.60;0.60;;;;;;;2.32;74.29;97220.06;29371;227;64004;-65
2022/02/25 00:42:10;;;;;;;0.60;0.60;;;;;;;2.29;75.11;97217.84;29373;282;63009;-62
2022/02/25 00:42:42;;;;;;;0.60;0.60;;;;;;;2.27;75.42;97219.94;29373;204;63004;-62
2022/02/25 00:43:13;;;;;;;0.60;0.60;;;;;;;2.24;75.47;97217.72;29373;319;63008;-62
2022/02/25 00:43:45;;;;;;;0.60;0.60;;;;;;;2.28;75.33;97222.38;29373;211;63004;-61
2022/02/25 00:44:18;;;;;;;0.62;0.62;;;;;;;2.42;73.66;97217.63;29371;219;64009;-63
2022/02/25 00:44:50;;;;;;;0.60;0.60;;;;;;;2.45;73.21;97219.00;29373;220;63005;-64
2022/02/25 00:45:21;;;;;;;0.60;0.60;;;;;;;2.44;73.09;97220.03;29373;218;63009;-64
2022/02/25 00:45:53;;;;;;;0.60;0.60;;;;;;;2.39;73.47;97225.31;29373;261;63005;-63
2022/02/25 00:46:26;;;;;;;0.60;0.60;;;;;;;2.44;73.21;97220.84;29373;277;63009;-64
2022/02/25 00:46:59;;;;;;;0.60;0.60;;;;;;;2.42;73.38;97217.63;29373;197;63005;-63
2022/02/25 00:47:31;;;;;;;0.60;0.60;;;;;;;2.44;73.67;97226.22;29373;224;63009;-61
2022/02/25 00:48:03;;;;;;;0.60;0.60;;;;;;;2.46;72.78;97228.66;29373;221;63005;-63
2022/02/25 00:48:34;;;;;;;0.60;0.60;;;;;;;2.44;72.91;97215.50;29373;225;63009;-64
2022/02/25 00:49:07;;;;;;;0.60;0.60;;;;;;;2.42;73.04;97222.97;29373;302;63004;-60
2022/02/25 00:49:38;;;;;;;0.50;0.50;;;;;;;2.36;73.48;97226.59;29371;264;64009;-63
2022/02/25 00:50:10;;;;;;;0.60;0.60;;;;;;;2.38;74.10;97227.16;29373;258;63004;-64
2022/02/25 00:50:41;;;;;;;0.60;0.60;;;;;;;2.38;73.72;97235.19;29373;290;63009;-65
2022/02/25 00:51:13;;;;;;;0.60;0.60;;;;;;;2.37;73.82;97230.91;29373;289;63004;-62
2022/02/25 00:51:46;;;;;;;0.60;0.60;;;;;;;2.35;73.68;97235.66;29373;295;63009;-66
2022/02/25 00:52:17;;;;;;;0.60;0.60;;;;;;;2.40;73.42;97233.09;29373;210;63005;-66
2022/02/25 00:52:48;;;;;;;0.60;0.60;;;;;;;2.45;72.83;97227.84;29371;218;64009;-60
2022/02/25 00:53:19;;;;;;;0.60;0.60;;;;;;;2.49;72.53;97234.37;29373;203;63005;-64
2022/02/25 00:53:50;;;;;;;0.60;0.60;;;;;;;2.52;72.00;97233.91;29373;203;63009;-66
2022/02/25 00:54:21;;;;;;;0.60;0.60;;;;;;;2.50;72.08;97238.69;29373;229;63005;-62
2022/02/25 00:54:52;;;;;;;0.60;0.60;;;;;;;2.51;72.60;97237.62;29373;197;63009;-63
2022/02/25 00:55:24;;;;;;;0.60;0.60;;;;;;;2.48;72.71;97235.41;29373;292;63005;-63
2022/02/25 00:55:55;;;;;;;0.60;0.60;;;;;;;2.46;72.81;97229.47;29372;273;64009;-61
2022/02/25 00:56:26;;;;;;;0.50;0.50;;;;;;;2.45;72.77;97227.84;29373;199;63004;-63
2022/02/25 00:56:58;;;;;;;0.60;0.60;;;;;;;2.50;72.60;97230.66;29373;239;63009;-64
2022/02/25 00:57:30;;;;;;;0.60;0.60;;;;;;;2.46;72.33;97226.78;29373;197;63004;-62
2022/02/25 00:58:01;;;;;;;0.50;0.50;;;;;;;2.43;72.83;97229.13;29371;366;64009;-60
2022/02/25 00:58:32;;;;;;;0.60;0.60;;;;;;;2.43;73.00;97237.97;29371;221;64004;-67
2022/02/25 00:59:03;;;;;;;0.60;0.60;;;;;;;2.44;72.98;97236.94;29373;202;63008;-64
2022/02/25 00:59:38;;;;;;;0.55;0.55;;;;;;;2.46;72.56;97236.69;29373;241;63010;-58
2022/02/25 01:00:10;;;;;;;0.60;0.60;;;;;;;2.46;73.08;97236.69;29371;220;64009;-64
2022/02/25 01:00:41;;;;;;;0.55;0.55;;;;;;;2.45;72.76;97238.56;29371;252;64005;-63
2022/02/25 01:01:12;;;;;;;0.60;0.60;;;;;;;2.45;72.71;97241.22;29373;211;63009;-63
2022/02/25 01:01:43;;;;;;;0.60;0.60;;;;;;;2.41;73.25;97237.41;29373;299;63000;-63
2022/02/25 01:02:14;;;;;;;0.60;0.60;;;;;;;2.41;73.65;97244.63;29373;267;63009;-64
2022/02/25 01:02:47;;;;;;;0.60;0.60;;;;;;;2.51;71.50;97237.62;29373;214;63005;-65
2022/02/25 01:03:18;;;;;;;0.60;0.60;;;;;;;2.54;71.15;97236.34;29371;264;64009;-63
2022/02/25 01:03:49;;;;;;;0.60;0.60;;;;;;;2.50;71.13;97241.34;29373;198;63004;-65
2022/02/25 01:04:23;;;;;;;0.60;0.60;;;;;;;2.46;71.84;97244.72;29373;306;63009;-61
2022/02/25 01:04:57;;;;;;;0.60;0.60;;;;;;;2.48;72.21;97242.63;29373;204;63010;-62
2022/02/25 01:05:29;;;;;;;0.55;0.55;;;;;;;2.45;71.59;97238.56;29371;298;64009;-68
2022/02/25 01:06:00;;;;;;;0.60;0.60;;;;;;;2.49;71.36;97239.72;29373;208;63004;-62
2022/02/25 01:06:32;;;;;;;0.60;0.60;;;;;;;2.50;70.77;97252.06;29373;229;63008;-67
2022/02/25 01:07:04;;;;;;;0.60;0.60;;;;;;;2.49;71.42;97247.75;29373;232;63005;-57
2022/02/25 01:07:39;;;;;;;0.60;0.60;;;;;;;2.54;70.43;97239.84;29373;319;63009;-64
2022/02/25 01:08:10;;;;;;;0.60;0.60;;;;;;;2.48;70.33;97242.63;29371;207;64005;-66
2022/02/25 01:08:42;;;;;;;0.60;0.60;;;;;;;2.47;70.94;97247.19;29373;220;63009;-69
2022/02/25 01:09:13;;;;;;;0.60;0.60;;;;;;;2.42;71.35;97243.59;29373;266;63005;-60
2022/02/25 01:09:47;;;;;;;0.60;0.60;;;;;;;2.35;71.73;97254.41;29373;235;63009;-63
2022/02/25 01:10:19;;;;;;;0.50;0.50;;;;;;;2.35;71.72;97244.50;29373;291;63008;-62
2022/02/25 01:10:52;;;;;;;0.60;0.60;;;;;;;2.36;71.79;97245.34;29371;223;64009;-61
2022/02/25 01:11:23;;;;;;;0.60;0.60;;;;;;;2.31;72.14;97247.88;29373;196;63004;-62
2022/02/25 01:11:54;;;;;;;0.60;0.60;;;;;;;2.24;72.46;97252.53;29373;209;63009;-61
2022/02/25 01:12:29;;;;;;;0.60;0.60;;;;;;;2.25;72.66;97260.31;29373;197;63004;-64
2022/02/25 01:13:00;;;;;;;0.60;0.60;;;;;;;2.26;72.77;97256.59;29373;256;63008;-57
2022/02/25 01:13:31;;;;;;;0.60;0.60;;;;;;;2.30;72.13;97252.41;29371;218;64004;-63
2022/02/25 01:14:03;;;;;;;0.60;0.60;;;;;;;2.37;71.67;97252.31;29373;222;63008;-59
2022/02/25 01:14:35;;;;;;;0.60;0.60;;;;;;;2.29;73.04;97255.31;29373;200;63005;-62
2022/02/25 01:15:08;;;;;;;0.60;0.60;;;;;;;2.20;73.26;97251.34;29372;204;63009;-60
2022/02/25 01:15:39;;;;;;;0.60;0.60;;;;;;;2.12;72.98;97254.34;29373;202;63005;-64
2022/02/25 01:16:10;;;;;;;0.60;0.60;;;;;;;2.07;72.96;97262.28;29373;204;63009;-66
2022/02/25 01:16:41;;;;;;;0.60;0.60;;;;;;;2.11;72.54;97268.78;29373;232;63005;-58
2022/02/25 01:17:13;;;;;;;0.60;0.60;;;;;;;2.15;72.07;97254.72;29373;218;63009;-63
2022/02/25 01:17:44;;;;;;;0.60;0.60;;;;;;;2.16;71.93;97260.88;29373;227;63004;-63
2022/02/25 01:18:15;;;;;;;0.60;0.60;;;;;;;2.22;71.43;97260.78;29373;245;63009;-69
2022/02/25 01:18:46;;;;;;;0.50;0.50;;;;;;;2.32;70.27;97250.31;29371;196;64004;-59
2022/02/25 01:19:18;;;;;;;1.02;1.02;;;;;;;2.40;69.91;97262.56;29373;255;63009;-58
2022/02/25 01:19:51;;;;;;;0.60;0.60;;;;;;;2.40;69.74;97262.56;29373;224;63004;-66
2022/02/25 01:20:22;;;;;;;0.60;0.60;;;;;;;2.34;70.07;97261.62;29373;219;63008;-60
2022/02/25 01:20:53;;;;;;;0.60;0.60;;;;;;;2.26;70.62;97263.81;29373;254;63004;-62
2022/02/25 01:21:24;;;;;;;0.60;0.60;;;;;;;2.30;70.36;97267.66;29373;214;63009;-61
2022/02/25 01:21:56;;;;;;;0.60;0.60;;;;;;;2.30;70.32;97268.50;29373;207;63005;-59
2022/02/25 01:22:28;;;;;;;0.60;0.60;;;;;;;2.26;70.47;97269.19;29373;216;63009;-64
2022/02/25 01:22:59;;;;;;;0.60;0.60;;;;;;;2.25;70.57;97275.56;29373;211;63005;-64
2022/02/25 01:23:31;;;;;;;0.60;0.60;;;;;;;2.18;71.26;97264.97;29371;218;64009;-62
2022/02/25 01:24:03;;;;;;;0.60;0.60;;;;;;;2.23;70.62;97264.28;29373;215;63005;-57
2022/02/25 01:24:35;;;;;;;0.60;0.60;;;;;;;2.29;69.98;97266.84;29373;202;63009;-57
2022/02/25 01:25:07;;;;;;;0.60;0.60;;;;;;;2.27;69.61;97273.50;29373;279;63011;-60
2022/02/25 01:25:39;;;;;;;0.60;0.60;;;;;;;2.25;70.06;97271.03;29373;197;63009;-61
2022/02/25 01:26:10;;;;;;;0.60;0.60;;;;;;;2.17;70.42;97274.03;29373;259;63004;-63
2022/02/25 01:26:41;;;;;;;0.60;0.60;;;;;;;2.09;70.61;97270.88;29373;222;63009;-68
2022/02/25 01:27:13;;;;;;;0.60;0.60;;;;;;;2.07;71.01;97278.34;29373;221;63004;-66
2022/02/25 01:27:45;;;;;;;0.55;0.55;;;;;;;2.09;70.73;97278.91;29371;217;64008;-65
2022/02/25 01:28:17;;;;;;;0.60;0.60;;;;;;;2.11;70.26;97268.78;29373;226;63018;-61
2022/02/25 01:28:48;;;;;;;0.60;0.60;;;;;;;2.10;69.44;97275.19;29373;209;63009;-60
2022/02/25 01:29:19;;;;;;;0.60;0.60;;;;;;;2.04;69.80;97279.63;29373;200;63005;-59
2022/02/25 01:29:51;;;;;;;0.60;0.60;;;;;;;2.04;69.79;97274.25;29371;209;64009;-63
2022/02/25 01:30:22;;;;;;;0.60;0.60;;;;;;;2.05;70.16;97286.59;29373;213;63005;-66
2022/02/25 01:30:54;;;;;;;0.60;0.60;;;;;;;2.09;69.96;97281.59;29371;200;64009;-60
2022/02/25 01:31:25;;;;;;;0.60;0.60;;;;;;;2.13;69.51;97277.41;29373;232;63005;-60
2022/02/25 01:31:56;;;;;;;0.60;0.60;;;;;;;2.11;69.43;97279.50;29373;286;63009;-64
2022/02/25 01:32:29;;;;;;;0.60;0.60;;;;;;;2.15;69.26;97275.31;29373;242;63005;-60
2022/02/25 01:33:02;;;;;;;0.60;0.60;;;;;;;2.08;69.63;97279.97;29373;202;63009;-60
2022/02/25 01:33:37;;;;;;;0.60;0.60;;;;;;;1.99;70.01;97285.66;29371;295;64004;-66
2022/02/25 01:34:11;;;;;;;0.60;0.60;;;;;;;1.96;70.53;97288.78;29373;250;63009;-63
2022/02/25 01:34:43;;;;;;;0.60;0.60;;;;;;;1.97;70.38;97284.25;29373;297;63004;-65
2022/02/25 01:35:14;;;;;;;0.60;0.60;;;;;;;1.99;70.11;97282.16;29373;206;63008;-67
2022/02/25 01:35:45;;;;;;;0.60;0.60;;;;;;;2.00;69.73;97281.94;29373;283;63004;-59
2022/02/25 01:36:17;;;;;;;0.60;0.60;;;;;;;2.04;69.33;97287.66;29373;247;63009;-67
2022/02/25 01:36:48;;;;;;;0.60;0.60;;;;;;;1.98;70.07;97289.38;29373;220;63005;-64
2022/02/25 01:37:19;;;;;;;0.60;0.60;;;;;;;1.91;70.79;97285.97;29373;233;63017;-62
2022/02/25 01:37:51;;;;;;;0.55;0.55;;;;;;;1.88;71.08;97282.94;29373;234;63005;-58
2022/02/25 01:38:23;;;;;;;0.60;0.60;;;;;;;1.91;70.84;97285.97;29371;242;64009;-61
2022/02/25 01:38:54;;;;;;;0.60;0.60;;;;;;;1.93;70.42;97283.88;29373;202;63005;-69
2022/02/25 01:39:25;;;;;;;0.60;0.60;;;;;;;1.90;70.37;97284.34;29373;204;63009;-63
2022/02/25 01:39:56;;;;;;;0.60;0.60;;;;;;;1.90;70.46;97289.69;29373;202;63007;-67
2022/02/25 01:40:27;;;;;;;0.60;0.60;;;;;;;1.92;69.81;97290.28;29373;260;63020;-65
2022/02/25 01:41:00;;;;;;;0.60;0.60;;;;;;;1.90;69.90;97286.19;29373;222;63004;-63
2022/02/25 01:41:32;;;;;;;0.60;0.60;;;;;;;1.94;69.89;97290.88;29373;247;63009;-66
2022/02/25 01:42:06;;;;;;;0.60;0.60;;;;;;;1.96;69.79;97296.81;29373;217;63004;-64
2022/02/25 01:42:47;;;;;;;0.60;0.60;;;;;;;2.02;69.28;97297.75;29373;230;63009;-60
2022/02/25 01:43:20;;;;;;;0.60;0.60;;;;;;;1.95;68.60;97281.81;29373;231;63004;-62
2022/02/25 01:44:10;;;;;;;0.60;0.60;;;;;;;1.97;69.08;97284.25;29371;219;64009;-59
2022/02/25 01:44:42;;;;;;;0.60;0.60;;;;;;;1.99;69.34;97287.50;29373;254;63005;-66
2022/02/25 01:45:13;;;;;;;0.60;0.60;;;;;;;1.99;68.49;97288.34;29373;219;63009;-65
2022/02/25 01:45:44;;;;;;;0.60;0.60;;;;;;;1.97;68.93;97290.41;29373;222;63005;-67
2022/02/25 01:46:15;;;;;;;0.60;0.60;;;;;;;1.90;68.90;97286.19;29373;196;63009;-66
2022/02/25 01:46:55;;;;;;;0.60;0.60;;;;;;;1.92;69.34;97287.59;29373;213;63005;-61
2022/02/25 01:47:26;;;;;;;0.60;0.60;;;;;;;1.95;68.86;97287.16;29371;212;64009;-60
2022/02/25 01:48:00;;;;;;;0.60;0.60;;;;;;;1.96;69.23;97296.81;29373;252;63004;-64
2022/02/25 01:48:32;;;;;;;0.60;0.60;;;;;;;1.95;68.97;97289.81;29373;208;63009;-61
2022/02/25 01:49:03;;;;;;;0.60;0.60;;;;;;;1.97;68.84;97295.78;29373;231;63004;-55
2022/02/25 01:49:35;;;;;;;0.60;0.60;;;;;;;1.94;68.85;97284.69;29373;214;63016;-64
2022/02/25 01:50:07;;;;;;;0.60;0.60;;;;;;;1.96;68.98;97285.28;29371;216;64004;-64
2022/02/25 01:50:39;;;;;;;0.60;0.60;;;;;;;1.98;68.23;97288.56;29373;214;63008;-59
2022/02/25 01:51:10;;;;;;;0.60;0.60;;;;;;;1.98;68.12;97292.06;29373;221;63005;-61
2022/02/25 01:51:41;;;;;;;0.60;0.60;;;;;;;1.96;68.37;97288.78;29373;203;63009;-64
2022/02/25 01:52:17;;;;;;;1.10;0.98;;;;;;;1.93;68.57;97286.56;29373;212;63005;-66
2022/02/25 01:53:05;;;;;;;0.60;0.60;;;;;;;1.87;68.81;97290.16;29371;202;64009;-55
2022/02/25 01:53:36;;;;;;;0.60;0.60;;;;;;;1.85;68.75;97288.75;29373;212;63005;-54
2022/02/25 01:54:08;;;;;;;0.60;0.60;;;;;;;1.85;68.31;97283.38;29373;230;63009;-66
2022/02/25 01:54:42;;;;;;;0.60;0.60;;;;;;;1.90;68.00;97288.88;29373;233;63005;-56
2022/02/25 01:55:14;;;;;;;0.93;0.93;;;;;;;1.93;67.82;97291.91;29371;254;64009;-58
2022/02/25 01:55:47;;;;;;;0.60;0.60;;;;;;;1.88;67.93;97282.94;29373;258;63004;-63
2022/02/25 01:56:18;;;;;;;0.60;0.60;;;;;;;1.80;68.17;97284.06;29373;221;63009;-59
2022/02/25 01:56:52;;;;;;;0.60;0.60;;;;;;;1.79;68.82;97293.13;29373;231;63004;-62
2022/02/25 01:57:23;;;;;;;0.60;0.60;;;;;;;1.75;68.71;97294.63;29373;219;63009;-62
2022/02/25 01:57:54;;;;;;;0.60;0.60;;;;;;;1.71;68.33;97298.00;29371;198;64004;-62
2022/02/25 01:58:25;;;;;;;0.60;0.60;;;;;;;1.69;69.21;97298.25;29373;260;63008;-68
2022/02/25 01:58:57;;;;;;;0.60;0.60;;;;;;;1.72;68.67;97297.78;29373;256;63005;-61
2022/02/25 01:59:29;;;;;;;0.60;0.60;;;;;;;1.73;68.79;97291.38;29373;251;63009;-67
2022/02/25 02:00:01;;;;;;;0.60;0.60;;;;;;;1.70;69.15;97305.22;29373;217;63005;-59
2022/02/25 02:00:33;;;;;;;0.95;0.95;;;;;;;1.72;68.36;97303.13;29373;222;63009;-56
2022/02/25 02:01:05;;;;;;;0.60;0.60;;;;;;;1.74;68.82;97298.34;29373;209;63005;-65
2022/02/25 02:01:36;;;;;;;0.60;0.60;;;;;;;1.78;68.40;97296.84;29371;216;64009;-62
2022/02/25 02:02:10;;;;;;;0.70;0.70;;;;;;;1.83;68.05;97291.62;29373;204;63005;-58
2022/02/25 02:02:41;;;;;;;0.60;0.60;;;;;;;1.87;67.81;97300.84;29373;237;63009;-60
2022/02/25 02:03:12;;;;;;;0.60;0.60;;;;;;;1.86;67.86;97298.41;29373;234;63004;-57
2022/02/25 02:03:43;;;;;;;0.60;0.60;;;;;;;1.82;67.87;97298.03;29373;202;63009;-62
2022/02/25 02:04:15;;;;;;;0.60;0.60;;;;;;;1.83;67.84;97299.66;29371;230;64004;-62
2022/02/25 02:04:46;;;;;;;0.60;0.60;;;;;;;1.86;67.54;97298.41;29374;213;63009;-65
2022/02/25 02:05:19;;;;;;;0.60;0.60;;;;;;;1.88;67.90;97293.63;29373;209;63004;-62
2022/02/25 02:05:50;;;;;;;0.60;0.60;;;;;;;1.82;67.75;97298.03;29371;228;64008;-65
2022/02/25 02:07:11;;;;;;;0.60;0.60;;;;;;;1.73;67.94;97303.94;29373;210;63009;-66
2022/02/25 02:07:43;;;;;;;0.60;0.60;;;;;;;1.67;68.80;97305.66;29373;261;63005;-65
2022/02/25 02:08:14;;;;;;;0.60;0.60;;;;;;;1.61;69.07;97309.25;29373;265;63009;-60
2022/02/25 02:08:46;;;;;;;0.60;0.60;;;;;;;1.60;68.98;97308.44;29371;227;64005;-67
2022/02/25 02:09:17;;;;;;;0.60;0.60;;;;;;;1.61;69.19;97301.22;29373;233;63009;-66
2022/02/25 02:09:48;;;;;;;0.60;0.60;;;;;;;1.61;69.28;97311.91;29373;219;63016;-59
2022/02/25 02:10:20;;;;;;;0.60;0.60;;;;;;;1.57;69.18;97308.06;29373;240;63009;-60
2022/02/25 02:10:53;;;;;;;0.60;0.60;;;;;;;1.56;69.75;97314.44;29373;258;63004;-63
2022/02/25 02:11:42;;;;;;;0.60;0.60;;;;;;;1.53;69.83;97313.03;29373;218;63009;-65
2022/02/25 02:12:13;;;;;;;0.60;0.60;;;;;;;1.57;69.43;97310.72;29373;212;63015;-64
2022/02/25 02:12:45;;;;;;;0.65;0.65;;;;;;;1.62;69.00;97308.19;29371;259;64009;-66
2022/02/25 02:13:16;;;;;;;0.60;0.60;;;;;;;1.55;69.04;97310.13;29371;240;64004;-66
2022/02/25 02:13:48;;;;;;;0.60;0.60;;;;;;;1.54;69.41;97305.81;29373;226;63009;-59
2022/02/25 02:14:21;;;;;;;0.60;0.60;;;;;;;1.54;69.25;97303.97;29373;203;63005;-65
2022/02/25 02:14:52;;;;;;;0.60;0.60;;;;;;;1.57;69.08;97321.44;29373;220;63009;-58
2022/02/25 02:15:25;;;;;;;0.60;0.60;;;;;;;1.64;68.30;97308.78;29373;232;63009;-59
2022/02/25 02:15:56;;;;;;;0.60;0.60;;;;;;;1.73;68.08;97307.44;29373;214;63009;-66
2022/02/25 02:16:28;;;;;;;0.60;0.60;;;;;;;1.70;67.94;97309.75;29371;216;64005;-65
2022/02/25 02:17:00;;;;;;;0.60;0.60;;;;;;;1.68;68.70;97315.31;29373;251;63009;-68
2022/02/25 02:17:32;;;;;;;0.60;0.60;;;;;;;1.69;68.73;97308.94;29373;222;63004;-60
2022/02/25 02:18:06;;;;;;;0.70;0.70;;;;;;;1.73;67.88;97304.78;29373;233;63009;-67
2022/02/25 02:18:37;;;;;;;0.60;0.60;;;;;;;1.70;68.13;97320.44;29371;224;64004;-67
2022/02/25 02:19:08;;;;;;;0.60;0.60;;;;;;;1.65;68.56;97313.91;29373;196;63009;-53
2022/02/25 02:19:43;;;;;;;0.60;0.60;;;;;;;1.65;68.24;97316.59;29373;260;63004;-52
2022/02/25 02:20:15;;;;;;;1.00;1.00;;;;;;;1.67;68.15;97316.38;29373;237;63008;-61
2022/02/25 02:20:49;;;;;;;0.60;0.60;;;;;;;1.73;67.48;97309.31;29373;213;63004;-60
2022/02/25 02:21:26;;;;;;;0.60;0.60;;;;;;;1.73;67.29;97312.78;29373;202;63009;-61
2022/02/25 02:22:00;;;;;;;0.60;0.60;;;;;;;1.63;67.72;97315.19;29373;224;63005;-66
2022/02/25 02:22:32;;;;;;;0.60;0.60;;;;;;;1.58;68.83;97329.22;29373;229;63009;-57
2022/02/25 02:23:04;;;;;;;0.60;0.60;;;;;;;1.61;68.07;97322.62;29373;248;63005;-58
2022/02/25 02:23:35;;;;;;;0.60;0.60;;;;;;;1.60;67.83;97315.63;29373;243;63026;-70
2022/02/25 02:24:07;;;;;;;0.60;0.60;;;;;;;1.55;68.19;97318.97;29371;238;64005;-62
2022/02/25 02:24:38;;;;;;;0.60;0.60;;;;;;;1.51;68.35;97314.31;29373;219;63009;-65
2022/02/25 02:25:09;;;;;;;0.60;0.60;;;;;;;1.50;68.59;97320.69;29373;270;63004;-65
2022/02/25 02:25:41;;;;;;;0.60;0.60;;;;;;;1.51;68.48;97322.31;29373;202;63009;-66
2022/02/25 02:26:12;;;;;;;0.60;0.60;;;;;;;1.47;69.18;97323.81;29373;250;63004;-62
2022/02/25 02:26:45;;;;;;;0.60;0.60;;;;;;;1.41;69.16;97327.38;29373;250;63009;-64
2022/02/25 02:27:17;;;;;;;0.60;0.60;;;;;;;1.39;69.78;97329.47;29373;246;63004;-62
2022/02/25 02:28:37;;;;;;;0.60;0.60;;;;;;;1.44;69.03;97326.94;29373;215;63005;-61
2022/02/25 02:29:09;;;;;;;0.60;0.60;;;;;;;1.44;69.22;97326.94;29371;238;64009;-60
2022/02/25 02:29:41;;;;;;;0.60;0.60;;;;;;;1.48;68.58;97325.44;29373;246;63005;-63
2022/02/25 02:30:14;;;;;;;0.60;0.60;;;;;;;1.46;68.85;97327.53;29373;224;63009;-63
2022/02/25 02:30:46;;;;;;;0.60;0.60;;;;;;;1.47;68.56;97329.16;29373;247;63005;-59
2022/02/25 02:31:18;;;;;;;0.60;0.60;;;;;;;1.44;68.50;97332.28;29373;210;63009;-68
2022/02/25 02:31:50;;;;;;;0.60;0.60;;;;;;;1.44;68.75;97334.94;29373;227;63005;-61
2022/02/25 02:32:21;;;;;;;0.60;0.60;;;;;;;1.51;68.03;97316.97;29373;234;63009;-66
2022/02/25 02:32:52;;;;;;;0.60;0.60;;;;;;;1.45;68.17;97323.22;29373;204;63004;-64
2022/02/25 02:33:27;;;;;;;0.60;0.60;;;;;;;1.43;68.20;97322.62;29373;229;63009;-57
2022/02/25 02:33:59;;;;;;;0.60;0.60;;;;;;;1.46;68.40;97331.00;29373;232;63004;-65
2022/02/25 02:34:30;;;;;;;0.60;0.60;;;;;;;1.53;68.25;97336.28;29371;212;64009;-60
2022/02/25 02:35:02;;;;;;;0.60;0.60;;;;;;;1.58;67.64;97328.41;29373;226;63004;-65
2022/02/25 02:35:35;;;;;;;0.60;0.60;;;;;;;1.56;67.61;97325.16;29373;196;63009;-62
2022/02/25 02:36:08;;;;;;;0.60;0.60;;;;;;;1.55;68.02;97335.03;29373;203;63005;-58
2022/02/25 02:36:43;;;;;;;0.60;0.60;;;;;;;1.55;67.74;97332.34;29373;197;63009;-62
2022/02/25 02:37:15;;;;;;;0.60;0.60;;;;;;;1.57;67.70;97332.13;29373;249;63005;-62